Don Beauty — 3FVK5 — position and weather

sailwx.info

Track history (hours):
 
Tides and Currents Weather Stations Pressure Air Temp Water Temp Dewpoint Dewpoint Depression Visibility Wind Speed Wind Dir Waves Ship Positions

Don Beauty

Last reported at 2018-Jul-16 09:49 UTC. Time now 2018-Jul-16 14:42 UTC.
Position N 32°01' E 120°22'.

Length 169 m; draft 9 m.

Type: Cargo ship. MMSI: 351600646.

Date/timePositionNaut miles runAvg speedWind from/ knotsBaromVisibWave heightAir tempDewpointWater temp
2018-Jul-16 09:49N 32°01' E 120°22'0 0.0
2018-Jul-16 09:25N 32°01' E 120°22'1 2.4
2018-Jul-16 08:59N 32°01' E 120°23'4 7.8
2018-Jul-16 08:29N 32°03' E 120°26'5 6.2
2018-Jul-16 07:43N 32°04' E 120°32'2 7.4
2018-Jul-16 07:25N 32°03' E 120°34'74 5.7
2018-Jul-15 18:29N 31°19' E 121°44'8 8.7
2018-Jul-15 17:32N 31°16' E 121°53'110.3
2018-Jul-15 17:27N 31°16' E 121°54'510.5
2018-Jul-15 17:00N 31°15' E 121°59'511.1
2018-Jul-15 16:30N 31°14' E 122°05'712.0
2018-Jul-15 15:58N 31°10' E 122°12'714.0
2018-Jul-15 15:26N 31°06' E 122°19'612.1
2018-Jul-15 14:58N 31°07' E 122°25'3 6.1
2018-Jul-15 14:25N 31°07' E 122°29'4 6.3
2018-Jul-15 13:45N 31°07' E 122°34'  
Track history (hours):
 
Tides and Currents Weather Stations Pressure Air Temp Water Temp Dewpoint Dewpoint Depression Visibility Wind Speed Wind Dir Waves Ship Positions

Don Beauty

Last reported at 2018-Jul-16 09:49 UTC. Time now 2018-Jul-16 14:42 UTC.
Position N 32°01' E 120°22'.

Length 169 m; draft 9 m.

Type: Cargo ship. MMSI: 351600646.

Date/timePositionNaut miles runAvg speedWind from/ knotsBaromVisibWave heightAir tempDewpointWater temp
2018-Jul-16 09:49N 32°01' E 120°22'0 0.0
2018-Jul-16 09:25N 32°01' E 120°22'1 2.4
2018-Jul-16 08:59N 32°01' E 120°23'4 7.8
2018-Jul-16 08:29N 32°03' E 120°26'5 6.2
2018-Jul-16 07:43N 32°04' E 120°32'2 7.4
2018-Jul-16 07:25N 32°03' E 120°34'74 5.7
2018-Jul-15 18:29N 31°19' E 121°44'8 8.7
2018-Jul-15 17:32N 31°16' E 121°53'110.3
2018-Jul-15 17:27N 31°16' E 121°54'510.5
2018-Jul-15 17:00N 31°15' E 121°59'511.1
2018-Jul-15 16:30N 31°14' E 122°05'712.0
2018-Jul-15 15:58N 31°10' E 122°12'714.0
2018-Jul-15 15:26N 31°06' E 122°19'612.1
2018-Jul-15 14:58N 31°07' E 122°25'3 6.1
2018-Jul-15 14:25N 31°07' E 122°29'4 6.3
2018-Jul-15 13:45N 31°07' E 122°34'  

Dump ship's entire track history